createdAt,value
2022-08-14T00:02:27.207Z,22.50
2022-08-14T00:04:55.629Z,22.52
2022-08-14T00:07:23.702Z,22.59
2022-08-14T00:10:02.165Z,22.59
2022-08-14T00:12:48.098Z,22.62
2022-08-14T00:15:29.763Z,22.63
2022-08-14T00:18:06.928Z,22.56
2022-08-14T00:20:41.273Z,22.69
2022-08-14T00:23:16.823Z,22.70
2022-08-14T00:25:58.904Z,22.65
2022-08-14T00:36:35.716Z,22.43
2022-08-14T00:38:44.438Z,22.28
2022-08-14T00:41:15.705Z,22.21
2022-08-14T00:43:46.368Z,22.27
2022-08-14T00:46:32.734Z,22.24
2022-08-14T00:49:02.231Z,22.29
2022-08-14T00:51:36.840Z,22.29
2022-08-14T00:54:16.972Z,22.31
2022-08-14T00:56:55.108Z,22.40
2022-08-14T00:59:24.618Z,22.37
2022-08-14T01:01:55.317Z,22.37
2022-08-14T01:04:50.844Z,22.34
2022-08-14T01:07:14.125Z,22.39
2022-08-14T01:09:42.924Z,22.38
2022-08-14T01:12:13.419Z,22.30
2022-08-14T01:14:55.885Z,22.12
2022-08-14T01:17:49.853Z,21.94
2022-08-14T01:20:40.027Z,21.84
2022-08-14T01:23:16.491Z,21.60
2022-08-14T01:25:48.733Z,21.63
2022-08-14T01:28:46.857Z,21.46
2022-08-14T01:31:08.820Z,21.51
2022-08-14T01:33:59.808Z,21.59
2022-08-14T01:36:35.508Z,21.53
2022-08-14T01:39:09.619Z,21.52
2022-08-14T01:41:42.546Z,21.49
2022-08-14T01:44:32.089Z,21.44
2022-08-14T01:47:06.021Z,21.41
2022-08-14T01:49:35.270Z,21.61
2022-08-14T01:52:08.985Z,21.69
2022-08-14T01:54:57.994Z,21.59
2022-08-14T01:57:49.726Z,21.59
2022-08-14T02:00:19.226Z,21.69
2022-08-14T02:02:52.751Z,21.66
2022-08-14T02:05:21.519Z,21.47
2022-08-14T02:07:55.937Z,21.56
2022-08-14T02:10:45.937Z,21.60
2022-08-14T02:13:16.202Z,21.58
2022-08-14T02:15:48.583Z,21.62
2022-08-14T02:18:18.532Z,21.56
2022-08-14T02:20:48.884Z,21.72
2022-08-14T02:23:23.944Z,21.68
2022-08-14T02:26:18.128Z,21.72
2022-08-14T02:28:58.352Z,21.67
2022-08-14T02:31:36.092Z,21.77
2022-08-14T02:34:14.769Z,21.79
2022-08-14T02:37:05.157Z,21.80
2022-08-14T02:39:37.048Z,21.86
2022-08-14T02:42:13.259Z,21.92
2022-08-14T02:44:49.230Z,21.98
2022-08-14T02:47:21.053Z,21.87
2022-08-14T02:49:50.655Z,21.93
2022-08-14T02:52:56.510Z,21.99
2022-08-14T02:55:11.951Z,21.99
2022-08-14T02:57:47.325Z,22.03
2022-08-14T03:00:26.367Z,22.07
2022-08-14T03:02:58.624Z,22.05
2022-08-14T03:05:32.972Z,22.04
2022-08-14T03:08:08.266Z,21.70
2022-08-14T03:10:37.028Z,21.83
2022-08-14T03:13:13.718Z,21.99
2022-08-14T03:15:56.256Z,21.98
2022-08-14T03:18:31.584Z,21.89
2022-08-14T03:21:07.669Z,21.74
2022-08-14T03:23:38.442Z,21.80
2022-08-14T03:26:13.050Z,21.76
2022-08-14T03:28:50.171Z,21.79
2022-08-14T03:31:22.162Z,21.81
2022-08-14T03:33:54.592Z,21.58
2022-08-14T03:37:52.074Z,21.47
2022-08-14T03:39:22.001Z,21.37
2022-08-14T03:42:01.605Z,21.02
2022-08-14T03:45:19.482Z,20.92
2022-08-14T03:47:20.543Z,20.85
2022-08-14T03:49:50.142Z,20.57
2022-08-14T03:52:38.105Z,20.65
2022-08-14T03:55:08.941Z,20.58
2022-08-14T03:57:37.761Z,20.59
2022-08-14T04:00:40.206Z,20.49
2022-08-14T04:03:01.665Z,20.42
2022-08-14T04:05:29.731Z,20.29
2022-08-14T04:08:30.055Z,20.43
2022-08-14T04:11:01.292Z,20.35
2022-08-14T04:13:31.420Z,20.46
2022-08-14T04:16:05.135Z,20.66
2022-08-14T04:18:35.001Z,20.74
2022-08-14T04:21:04.010Z,20.97
2022-08-14T04:23:33.370Z,20.85
2022-08-14T04:26:03.274Z,20.84
2022-08-14T04:29:08.530Z,20.76
2022-08-14T04:32:56.394Z,20.82
2022-08-14T04:34:17.159Z,20.85
2022-08-14T04:37:24.957Z,20.68
2022-08-14T04:40:12.174Z,21.07
2022-08-14T04:42:58.305Z,21.03
2022-08-14T04:45:32.938Z,20.98
2022-08-14T04:48:39.140Z,21.02
2022-08-14T04:51:03.701Z,21.13
2022-08-14T04:53:34.673Z,21.31
2022-08-14T04:56:03.634Z,21.44
2022-08-14T04:58:35.552Z,21.53
2022-08-14T05:01:12.680Z,21.54
2022-08-14T05:03:50.625Z,21.66
2022-08-14T05:06:37.530Z,21.56
2022-08-14T05:09:07.049Z,21.74
2022-08-14T05:11:36.782Z,21.98
2022-08-14T05:14:33.781Z,22.07
2022-08-14T05:16:53.166Z,22.06
2022-08-14T05:19:29.138Z,22.10
2022-08-14T05:22:17.099Z,22.22
2022-08-14T05:24:49.626Z,22.37
2022-08-14T05:27:22.901Z,22.47
2022-08-14T05:29:53.770Z,22.40
2022-08-14T05:32:27.299Z,22.65
2022-08-14T05:34:59.189Z,22.78
2022-08-14T05:37:29.859Z,22.97
2022-08-14T05:40:00.309Z,22.56
2022-08-14T05:42:32.244Z,22.42
2022-08-14T05:45:02.319Z,22.52
2022-08-14T05:47:39.077Z,22.64
2022-08-14T05:50:18.478Z,22.65
2022-08-14T05:52:49.329Z,22.38
2022-08-14T05:55:21.918Z,22.33
2022-08-14T05:57:52.493Z,22.29
2022-08-14T06:00:28.325Z,22.29
2022-08-14T06:02:57.407Z,22.31
2022-08-14T06:05:28.834Z,22.32
2022-08-14T06:07:58.132Z,22.56
2022-08-14T06:10:28.247Z,22.63
2022-08-14T06:12:58.147Z,22.45
2022-08-14T06:15:30.385Z,22.53
2022-08-14T06:18:00.320Z,22.59
2022-08-14T06:20:30.810Z,22.12
2022-08-14T06:22:59.751Z,21.80
2022-08-14T06:25:28.739Z,21.55
2022-08-14T06:27:58.224Z,21.52
2022-08-14T06:30:45.665Z,21.60
2022-08-14T06:33:15.649Z,21.71
2022-08-14T06:35:46.791Z,21.59
2022-08-14T06:38:18.036Z,21.62
2022-08-14T06:40:47.193Z,21.75
2022-08-14T06:43:19.751Z,21.76
2022-08-14T06:45:53.839Z,21.99
2022-08-14T06:48:25.310Z,22.00
2022-08-14T06:50:57.934Z,21.93
2022-08-14T06:53:27.467Z,21.98
2022-08-14T06:56:01.039Z,22.10
2022-08-14T06:58:32.351Z,22.08
2022-08-14T07:01:27.121Z,21.84
2022-08-14T07:04:22.877Z,22.08
2022-08-14T07:06:55.479Z,21.94
2022-08-14T07:09:27.904Z,22.02
2022-08-14T07:11:58.395Z,22.05
2022-08-14T07:14:27.390Z,22.02
2022-08-14T07:16:55.460Z,22.04
2022-08-14T07:19:24.320Z,22.02
2022-08-14T07:21:54.375Z,22.28
2022-08-14T07:24:31.027Z,22.45
2022-08-14T07:26:59.656Z,22.56
2022-08-14T07:29:28.854Z,22.61
2022-08-14T07:31:57.229Z,22.61
2022-08-14T07:34:36.306Z,22.65
2022-08-14T07:37:06.942Z,22.31
2022-08-14T07:39:35.299Z,22.29
2022-08-14T07:42:03.493Z,22.29
2022-08-14T07:44:35.774Z,22.34
2022-08-14T07:47:05.304Z,22.43
2022-08-14T07:49:34.352Z,22.39
2022-08-14T07:52:03.406Z,22.21
2022-08-14T07:54:32.895Z,22.31
2022-08-14T07:57:06.268Z,22.19
2022-08-14T07:59:43.466Z,22.02
2022-08-14T08:02:18.853Z,21.78
2022-08-14T08:04:50.652Z,21.40
2022-08-14T08:07:22.205Z,21.48
2022-08-14T08:09:56.771Z,21.45
2022-08-14T08:12:29.762Z,21.07
2022-08-14T08:15:02.754Z,20.89
2022-08-14T08:17:38.794Z,21.16
2022-08-14T08:20:16.892Z,20.96
2022-08-14T08:22:49.989Z,20.88
2022-08-14T08:25:25.864Z,21.03
2022-08-14T08:27:59.244Z,20.92
2022-08-14T08:30:29.000Z,20.73
2022-08-14T08:32:59.148Z,20.59
2022-08-14T08:35:46.086Z,20.80
2022-08-14T08:39:17.446Z,20.97
2022-08-14T08:41:11.001Z,20.75
2022-08-14T08:43:46.182Z,20.51
2022-08-14T08:46:18.831Z,20.56
2022-08-14T08:51:30.506Z,20.64
2022-08-14T08:54:01.342Z,20.64
2022-08-14T08:56:42.308Z,20.74
2022-08-14T08:59:22.360Z,20.44
2022-08-14T09:01:58.845Z,20.40
2022-08-14T09:04:30.290Z,20.64
2022-08-14T09:07:10.074Z,20.55
2022-08-14T09:09:53.751Z,20.62
2022-08-14T09:12:26.975Z,20.54
2022-08-14T09:14:55.721Z,20.76
2022-08-14T09:17:25.893Z,20.81
2022-08-14T09:19:54.775Z,21.00
2022-08-14T09:22:34.915Z,20.98
2022-08-14T09:25:06.937Z,21.16
2022-08-14T09:27:37.897Z,21.40
2022-08-14T09:30:12.648Z,21.34
2022-08-14T09:33:22.858Z,21.55
2022-08-14T09:36:08.968Z,21.41
2022-08-14T09:38:46.403Z,21.19
2022-08-14T09:42:20.187Z,21.28
2022-08-14T09:44:45.763Z,20.88
2022-08-14T09:47:15.376Z,20.94
2022-08-14T09:49:44.020Z,21.09
2022-08-14T09:52:33.981Z,21.13
2022-08-14T09:55:03.347Z,20.94
2022-08-14T09:57:32.439Z,20.79
2022-08-14T10:00:28.615Z,20.69
2022-08-14T10:03:05.532Z,20.60
2022-08-14T10:05:37.856Z,20.87
2022-08-14T10:08:25.398Z,20.89
2022-08-14T10:11:02.346Z,20.73
2022-08-14T10:13:42.906Z,20.61
2022-08-14T10:16:27.439Z,20.66
2022-08-14T10:19:09.247Z,20.46
2022-08-14T10:21:58.866Z,20.04
2022-08-14T10:24:31.223Z,20.04
2022-08-14T10:27:05.305Z,19.92
2022-08-14T10:29:36.071Z,20.01
2022-08-14T10:32:17.825Z,20.37
2022-08-14T10:35:06.450Z,20.34
2022-08-14T10:37:44.325Z,20.36
2022-08-14T10:40:37.506Z,20.30
2022-08-14T10:43:04.308Z,20.26
2022-08-14T10:45:35.579Z,20.47
2022-08-14T10:48:36.499Z,20.64
2022-08-14T10:51:08.479Z,20.79
2022-08-14T10:53:40.109Z,20.84
2022-08-14T10:56:21.914Z,20.89
2022-08-14T10:59:03.784Z,20.90
2022-08-14T11:01:32.845Z,21.04
2022-08-14T11:04:28.646Z,20.98
2022-08-14T11:06:59.391Z,20.97
2022-08-14T11:09:31.806Z,21.01
2022-08-14T11:12:34.865Z,20.91
2022-08-14T11:14:59.019Z,20.95
2022-08-14T11:17:31.739Z,20.98
2022-08-14T11:20:03.188Z,20.98
2022-08-14T11:23:03.018Z,21.09
2022-08-14T11:25:23.865Z,21.07
2022-08-14T11:27:54.960Z,21.13
2022-08-14T11:30:51.678Z,21.00
2022-08-14T11:33:13.963Z,21.08
2022-08-14T11:35:49.730Z,20.86
2022-08-14T11:38:20.110Z,20.88
2022-08-14T11:40:48.969Z,20.94
2022-08-14T11:43:17.789Z,21.03
2022-08-14T11:45:52.214Z,21.05
2022-08-14T11:48:59.137Z,21.11
2022-08-14T11:51:23.761Z,21.02
2022-08-14T11:53:54.027Z,21.08
2022-08-14T11:56:25.704Z,21.01
2022-08-14T11:58:57.793Z,20.92
2022-08-14T12:01:28.898Z,20.87
2022-08-14T12:03:59.126Z,20.95
2022-08-14T12:06:38.724Z,21.09
2022-08-14T12:09:08.485Z,21.00
2022-08-14T12:11:44.244Z,21.06
2022-08-14T12:14:30.981Z,21.15
2022-08-14T12:17:09.544Z,20.89
2022-08-14T12:19:50.984Z,20.69
2022-08-14T12:22:30.081Z,20.79
2022-08-14T12:24:58.867Z,20.83
2022-08-14T12:27:46.624Z,20.78
2022-08-14T12:30:29.265Z,20.66
2022-08-14T12:33:08.727Z,20.69
2022-08-14T12:35:39.707Z,20.66
2022-08-14T12:38:10.500Z,20.51
2022-08-14T12:40:49.177Z,20.52
2022-08-14T12:43:19.789Z,20.57
2022-08-14T12:45:52.169Z,20.55
2022-08-14T12:48:31.364Z,20.54
2022-08-14T12:51:00.629Z,20.56
2022-08-14T12:53:38.953Z,20.10
2022-08-14T12:56:21.513Z,20.17
2022-08-14T12:58:59.169Z,19.83
2022-08-14T13:01:29.710Z,19.67
2022-08-14T13:04:10.186Z,19.61
2022-08-14T13:06:41.264Z,19.48
2022-08-14T13:09:11.672Z,19.34
2022-08-14T13:11:45.096Z,19.17
2022-08-14T13:14:16.982Z,19.19
2022-08-14T13:16:50.248Z,19.20
2022-08-14T13:19:19.863Z,19.40
2022-08-14T13:22:05.212Z,19.62
2022-08-14T13:24:40.035Z,19.87
2022-08-14T13:27:09.836Z,19.93
2022-08-14T13:29:43.855Z,19.79
2022-08-14T13:32:15.362Z,19.67
2022-08-14T13:34:46.019Z,19.75
2022-08-14T13:37:16.945Z,19.52
2022-08-14T13:39:57.434Z,19.63
2022-08-14T13:42:30.289Z,19.53
2022-08-14T13:45:01.402Z,19.29
2022-08-14T13:47:32.527Z,19.48
2022-08-14T13:50:06.528Z,19.58
2022-08-14T13:52:59.259Z,19.57
2022-08-14T13:55:31.367Z,19.39
2022-08-14T13:58:04.307Z,19.32
2022-08-14T14:00:51.807Z,19.36
2022-08-14T14:03:24.523Z,19.31
2022-08-14T14:05:55.146Z,19.19
2022-08-14T14:08:45.976Z,19.09
2022-08-14T14:11:16.489Z,18.92
2022-08-14T14:13:46.500Z,18.83
2022-08-14T14:16:21.744Z,18.78
2022-08-14T14:18:56.304Z,18.75
2022-08-14T14:21:28.691Z,18.71
2022-08-14T14:23:58.146Z,18.78
2022-08-14T14:26:29.261Z,18.93
2022-08-14T14:29:02.674Z,18.91
2022-08-14T14:31:32.452Z,19.17
2022-08-14T14:34:07.686Z,19.36
2022-08-14T14:36:52.790Z,19.34
2022-08-14T14:39:27.520Z,19.26
2022-08-14T14:42:04.145Z,18.99
2022-08-14T14:44:40.493Z,18.87
2022-08-14T14:47:15.559Z,18.87
2022-08-14T14:49:54.966Z,19.09
2022-08-14T14:52:27.541Z,19.44
2022-08-14T14:54:58.423Z,19.51
2022-08-14T14:57:34.915Z,19.38
2022-08-14T15:00:06.774Z,19.14
2022-08-14T15:02:41.327Z,19.12
2022-08-14T15:05:11.762Z,19.23
2022-08-14T15:07:41.482Z,19.49
2022-08-14T15:10:27.498Z,19.69
2022-08-14T15:13:04.231Z,19.59
2022-08-14T15:15:33.418Z,19.40
2022-08-14T15:18:14.727Z,19.45
2022-08-14T15:20:43.228Z,19.59
2022-08-14T15:23:16.263Z,19.75
2022-08-14T15:25:52.223Z,19.84
2022-08-14T15:28:23.239Z,19.58
2022-08-14T15:30:58.866Z,19.46
2022-08-14T15:34:33.173Z,19.48
2022-08-14T15:36:35.284Z,19.61
2022-08-14T15:39:03.359Z,19.71
2022-08-14T15:41:33.675Z,19.62
2022-08-14T15:44:18.836Z,19.73
2022-08-14T15:46:47.414Z,19.75
2022-08-14T15:49:15.633Z,19.50
2022-08-14T15:51:43.707Z,19.41
2022-08-14T15:54:12.036Z,19.41
2022-08-14T15:56:43.693Z,19.48
2022-08-14T15:59:17.942Z,19.74
2022-08-14T16:01:54.251Z,19.74
2022-08-14T16:04:23.976Z,19.72
2022-08-14T16:06:54.822Z,19.81
2022-08-14T16:09:23.985Z,19.89
2022-08-14T16:11:53.565Z,19.96
2022-08-14T16:14:24.334Z,19.84
2022-08-14T16:17:00.321Z,19.96
2022-08-14T16:19:31.620Z,19.90
2022-08-14T16:22:58.693Z,19.89
2022-08-14T16:25:00.134Z,19.97
2022-08-14T16:27:37.071Z,20.00
2022-08-14T16:30:25.037Z,19.97
2022-08-14T16:32:59.631Z,19.94
2022-08-14T16:35:42.611Z,19.98
2022-08-14T16:38:46.519Z,19.96
2022-08-14T16:41:21.963Z,20.04
2022-08-14T16:43:53.909Z,20.15
2022-08-14T16:46:32.841Z,20.13
2022-08-14T16:49:01.545Z,20.05
2022-08-14T16:51:36.172Z,19.76
2022-08-14T16:54:20.855Z,19.77
2022-08-14T16:56:53.945Z,19.79
2022-08-14T16:59:30.657Z,19.70
2022-08-14T17:02:13.901Z,19.42
2022-08-14T17:04:49.160Z,19.33
2022-08-14T17:07:17.583Z,19.39
2022-08-14T17:09:48.569Z,19.48
2022-08-14T17:12:28.489Z,19.47
2022-08-14T17:15:10.558Z,19.32
2022-08-14T17:17:49.833Z,19.30
2022-08-14T17:20:53.065Z,19.09
2022-08-14T17:23:14.474Z,19.02
2022-08-14T17:28:50.504Z,19.00
2022-08-14T17:31:18.792Z,19.09
2022-08-14T17:33:52.303Z,19.07
2022-08-14T17:36:24.127Z,19.06
2022-08-14T17:39:02.772Z,19.04
2022-08-14T17:41:38.124Z,18.87
2022-08-14T17:44:21.867Z,18.96
2022-08-14T17:47:04.842Z,19.07
2022-08-14T17:49:40.457Z,19.10
2022-08-14T17:52:17.008Z,18.99
2022-08-14T17:54:53.063Z,18.99
2022-08-14T17:57:40.617Z,19.07
2022-08-14T18:00:13.083Z,18.91
2022-08-14T18:02:50.463Z,18.98
2022-08-14T18:05:23.185Z,19.09
2022-08-14T18:08:33.687Z,18.32
2022-08-14T18:11:00.328Z,18.95
2022-08-14T18:13:51.690Z,19.00
2022-08-14T18:16:20.208Z,19.01
2022-08-14T18:18:52.002Z,18.91
2022-08-14T18:21:23.957Z,18.83
2022-08-14T18:24:19.979Z,18.81
2022-08-14T18:27:08.867Z,18.64
2022-08-14T18:29:43.182Z,18.67
2022-08-14T18:32:47.507Z,18.75
2022-08-14T18:35:46.122Z,18.69
2022-08-14T18:38:26.109Z,18.48
2022-08-14T18:41:37.329Z,18.64
2022-08-14T18:44:10.126Z,18.73
2022-08-14T18:47:25.602Z,18.63
2022-08-14T18:50:27.720Z,18.74
2022-08-14T18:52:54.736Z,18.82
2022-08-14T18:55:54.021Z,18.82
2022-08-14T18:58:46.957Z,18.71
2022-08-14T19:01:25.204Z,18.36
2022-08-14T19:03:54.915Z,18.31
2022-08-14T19:06:42.864Z,18.52
2022-08-14T19:09:44.165Z,18.61
2022-08-14T19:12:57.762Z,18.55
2022-08-14T19:15:28.442Z,18.54
2022-08-14T19:18:14.893Z,18.63
2022-08-14T19:20:52.839Z,18.58
2022-08-14T19:23:23.580Z,18.56
2022-08-14T19:26:36.773Z,18.50
2022-08-14T19:29:37.785Z,18.56
2022-08-14T19:32:40.207Z,18.43
2022-08-14T19:35:55.488Z,18.62
2022-08-14T19:39:01.551Z,18.36
2022-08-14T19:41:34.580Z,18.26
2022-08-14T19:44:11.699Z,18.12
2022-08-14T19:47:01.361Z,17.90
2022-08-14T19:50:24.723Z,18.18
2022-08-14T19:52:26.597Z,17.86
2022-08-14T19:54:58.160Z,17.89
2022-08-14T19:57:28.950Z,18.27
2022-08-14T20:00:04.546Z,17.70
2022-08-14T20:02:37.452Z,18.04
2022-08-14T20:05:08.419Z,17.91
2022-08-14T20:07:59.289Z,17.86
2022-08-14T20:11:07.975Z,17.43
2022-08-14T20:13:32.149Z,17.92
2022-08-14T20:16:12.023Z,17.92
2022-08-14T20:18:49.083Z,18.04
2022-08-14T20:21:20.049Z,18.15
2022-08-14T20:23:49.457Z,18.19
2022-08-14T20:26:31.904Z,17.80
2022-08-14T20:29:06.945Z,17.76
2022-08-14T20:31:38.397Z,17.79
2022-08-14T20:34:24.365Z,17.33
2022-08-14T20:37:09.662Z,17.68
2022-08-14T20:39:45.026Z,17.77
2022-08-14T20:42:43.683Z,18.13
2022-08-14T20:45:24.189Z,17.88
2022-08-14T20:48:01.846Z,18.16
2022-08-14T20:50:44.933Z,18.15
2022-08-14T20:53:32.756Z,18.31
2022-08-14T20:56:04.682Z,18.48
2022-08-14T20:58:52.406Z,18.36
2022-08-14T21:01:36.122Z,18.02
2022-08-14T21:04:21.101Z,18.54
2022-08-14T21:07:33.632Z,18.03
2022-08-14T21:10:06.050Z,18.31
2022-08-14T21:12:34.338Z,18.61
2022-08-14T21:15:10.257Z,18.68
2022-08-14T21:17:47.245Z,18.50
2022-08-14T21:20:25.954Z,18.72
2022-08-14T21:23:00.357Z,18.48
2022-08-14T21:25:31.906Z,18.74
2022-08-14T21:28:04.994Z,18.79
2022-08-14T21:30:51.242Z,18.55
2022-08-14T21:33:21.966Z,18.44
2022-08-14T21:35:55.050Z,18.40
2022-08-14T21:38:34.232Z,18.29
2022-08-14T21:41:43.530Z,18.42
2022-08-14T21:44:05.325Z,17.77
2022-08-14T21:46:53.541Z,18.28
2022-08-14T21:49:25.650Z,18.33
2022-08-14T21:52:50.791Z,18.09
2022-08-14T21:54:54.225Z,18.28
2022-08-14T21:57:53.467Z,17.63
2022-08-14T22:00:34.910Z,18.35
2022-08-14T22:03:06.077Z,18.06
2022-08-14T22:05:35.862Z,18.19
2022-08-14T22:08:07.519Z,17.50
2022-08-14T22:10:42.381Z,18.14
2022-08-14T22:13:11.858Z,18.25
2022-08-14T22:15:43.855Z,18.35
2022-08-14T22:18:20.725Z,18.23
2022-08-14T22:20:53.523Z,18.07
2022-08-14T22:23:23.979Z,18.16
2022-08-14T22:25:52.780Z,18.12
2022-08-14T22:28:25.263Z,18.12
2022-08-14T22:30:55.256Z,17.66
2022-08-14T22:33:31.023Z,17.83
2022-08-14T22:36:24.773Z,17.84
2022-08-14T22:38:54.144Z,17.95
2022-08-14T22:41:27.758Z,17.89
2022-08-14T22:44:04.407Z,18.12
2022-08-14T22:46:34.530Z,17.52
2022-08-14T22:49:16.677Z,17.98
2022-08-14T22:51:53.199Z,17.96
2022-08-14T22:54:52.040Z,17.55
2022-08-14T22:57:10.615Z,17.43
2022-08-14T22:59:39.683Z,17.59
2022-08-14T23:02:14.611Z,17.01
2022-08-14T23:04:54.643Z,17.24
2022-08-14T23:08:59.844Z,16.84
2022-08-14T23:10:32.168Z,17.25
2022-08-14T23:13:02.934Z,17.01
2022-08-14T23:15:31.260Z,17.12
2022-08-14T23:17:59.753Z,17.12
2022-08-14T23:20:31.943Z,17.23
2022-08-14T23:23:01.478Z,16.95
2022-08-14T23:25:44.592Z,17.20
2022-08-14T23:28:34.255Z,17.29
2022-08-14T23:31:14.214Z,17.34
2022-08-14T23:33:46.026Z,16.97
2022-08-14T23:36:32.680Z,17.15
2022-08-14T23:39:10.395Z,17.17
2022-08-14T23:41:47.019Z,16.90
2022-08-14T23:44:23.716Z,16.73
2022-08-14T23:46:56.884Z,16.80
2022-08-14T23:50:00.184Z,16.98
2022-08-14T23:53:04.202Z,17.11
2022-08-14T23:55:11.094Z,16.72
2022-08-14T23:57:43.690Z,16.98
